sensor_id;sensor_type;location;lat;lon;timestamp;temperature;humidity
15625;DHT22;7912;51.376;6.126;2023-05-07T00:03:52;18.80;99.90
15625;DHT22;7912;51.376;6.126;2023-05-07T00:06:32;18.70;99.90
15625;DHT22;7912;51.376;6.126;2023-05-07T00:09:00;18.70;99.90
15625;DHT22;7912;51.376;6.126;2023-05-07T00:11:28;18.70;99.90
15625;DHT22;7912;51.376;6.126;2023-05-07T00:13:55;18.70;99.90
15625;DHT22;7912;51.376;6.126;2023-05-07T00:16:23;18.70;99.90
15625;DHT22;7912;51.376;6.126;2023-05-07T00:18:50;18.60;99.90
15625;DHT22;7912;51.376;6.126;2023-05-07T00:21:17;18.60;99.90
15625;DHT22;7912;51.376;6.126;2023-05-07T00:23:45;18.60;99.90
15625;DHT22;7912;51.376;6.126;2023-05-07T00:26:12;18.60;99.90
15625;DHT22;7912;51.376;6.126;2023-05-07T00:28:40;18.60;99.90
15625;DHT22;7912;51.376;6.126;2023-05-07T00:31:26;18.60;99.90
15625;DHT22;7912;51.376;6.126;2023-05-07T00:33:54;18.50;99.90
15625;DHT22;7912;51.376;6.126;2023-05-07T00:36:21;18.50;99.90
15625;DHT22;7912;51.376;6.126;2023-05-07T00:38:48;18.50;99.90
15625;DHT22;7912;51.376;6.126;2023-05-07T00:41:16;18.50;99.90
15625;DHT22;7912;51.376;6.126;2023-05-07T00:43:43;18.50;99.90
15625;DHT22;7912;51.376;6.126;2023-05-07T00:46:11;18.50;99.90
15625;DHT22;7912;51.376;6.126;2023-05-07T00:48:40;18.50;99.90
15625;DHT22;7912;51.376;6.126;2023-05-07T00:51:08;18.50;99.90
15625;DHT22;7912;51.376;6.126;2023-05-07T00:53:57;18.40;99.90
15625;DHT22;7912;51.376;6.126;2023-05-07T00:56:27;18.40;99.90
15625;DHT22;7912;51.376;6.126;2023-05-07T00:58:55;18.50;99.90
15625;DHT22;7912;51.376;6.126;2023-05-07T01:01:42;18.50;99.90
15625;DHT22;7912;51.376;6.126;2023-05-07T01:04:09;18.50;99.90
15625;DHT22;7912;51.376;6.126;2023-05-07T01:09:43;18.50;99.90
15625;DHT22;7912;51.376;6.126;2023-05-07T01:12:30;18.50;99.90
15625;DHT22;7912;51.376;6.126;2023-05-07T01:14:58;18.50;99.90
15625;DHT22;7912;51.376;6.126;2023-05-07T01:17:25;18.40;99.90
15625;DHT22;7912;51.376;6.126;2023-05-07T01:19:56;18.50;99.90
15625;DHT22;7912;51.376;6.126;2023-05-07T01:22:31;18.50;99.90
15625;DHT22;7912;51.376;6.126;2023-05-07T01:25:00;18.50;99.90
15625;DHT22;7912;51.376;6.126;2023-05-07T01:27:28;18.50;99.90
15625;DHT22;7912;51.376;6.126;2023-05-07T01:29:55;18.50;99.90
15625;DHT22;7912;51.376;6.126;2023-05-07T01:32:35;18.50;99.90
15625;DHT22;7912;51.376;6.126;2023-05-07T01:35:11;18.50;99.90
15625;DHT22;7912;51.376;6.126;2023-05-07T01:40:45;18.50;99.90
15625;DHT22;7912;51.376;6.126;2023-05-07T01:43:13;18.50;99.90
15625;DHT22;7912;51.376;6.126;2023-05-07T01:45:40;18.50;99.90
15625;DHT22;7912;51.376;6.126;2023-05-07T01:48:10;18.50;99.90
15625;DHT22;7912;51.376;6.126;2023-05-07T01:50:39;18.50;99.90
15625;DHT22;7912;51.376;6.126;2023-05-07T01:53:07;18.50;99.90
15625;DHT22;7912;51.376;6.126;2023-05-07T01:55:35;18.50;99.90
15625;DHT22;7912;51.376;6.126;2023-05-07T01:58:04;18.50;99.90
15625;DHT22;7912;51.376;6.126;2023-05-07T02:03:54;18.40;99.90
15625;DHT22;7912;51.376;6.126;2023-05-07T02:06:22;18.50;99.90
15625;DHT22;7912;51.376;6.126;2023-05-07T02:08:50;18.40;99.90
15625;DHT22;7912;51.376;6.126;2023-05-07T02:11:17;18.40;99.90
15625;DHT22;7912;51.376;6.126;2023-05-07T02:13:44;18.30;99.90
15625;DHT22;7912;51.376;6.126;2023-05-07T02:16:12;18.30;99.90
15625;DHT22;7912;51.376;6.126;2023-05-07T02:18:41;18.20;99.90
15625;DHT22;7912;51.376;6.126;2023-05-07T02:21:08;18.20;99.90
15625;DHT22;7912;51.376;6.126;2023-05-07T02:23:37;18.20;99.90
15625;DHT22;7912;51.376;6.126;2023-05-07T02:26:05;18.10;99.90
15625;DHT22;7912;51.376;6.126;2023-05-07T02:28:32;18.10;99.90
15625;DHT22;7912;51.376;6.126;2023-05-07T02:31:05;18.00;99.90
15625;DHT22;7912;51.376;6.126;2023-05-07T02:33:32;18.00;99.90
15625;DHT22;7912;51.376;6.126;2023-05-07T02:36:08;17.90;99.90
15625;DHT22;7912;51.376;6.126;2023-05-07T02:38:37;17.90;99.90
15625;DHT22;7912;51.376;6.126;2023-05-07T02:41:05;17.90;99.90
15625;DHT22;7912;51.376;6.126;2023-05-07T02:43:32;17.80;99.90
15625;DHT22;7912;51.376;6.126;2023-05-07T02:46:03;17.80;99.90
15625;DHT22;7912;51.376;6.126;2023-05-07T02:48:32;17.80;99.90
15625;DHT22;7912;51.376;6.126;2023-05-07T02:54:06;17.80;99.90
15625;DHT22;7912;51.376;6.126;2023-05-07T02:56:34;17.80;99.90
15625;DHT22;7912;51.376;6.126;2023-05-07T02:59:01;17.70;99.90
15625;DHT22;7912;51.376;6.126;2023-05-07T03:01:28;17.80;99.90
15625;DHT22;7912;51.376;6.126;2023-05-07T03:03:55;17.80;99.90
15625;DHT22;7912;51.376;6.126;2023-05-07T03:06:23;17.80;99.90
15625;DHT22;7912;51.376;6.126;2023-05-07T03:08:50;17.80;99.90
15625;DHT22;7912;51.376;6.126;2023-05-07T03:11:38;17.80;99.90
15625;DHT22;7912;51.376;6.126;2023-05-07T03:17:48;17.80;99.90
15625;DHT22;7912;51.376;6.126;2023-05-07T03:20:15;17.80;99.90
15625;DHT22;7912;51.376;6.126;2023-05-07T03:22:43;17.80;99.90
15625;DHT22;7912;51.376;6.126;2023-05-07T03:25:10;17.80;99.90
15625;DHT22;7912;51.376;6.126;2023-05-07T03:27:37;17.80;99.90
15625;DHT22;7912;51.376;6.126;2023-05-07T03:30:05;17.80;99.90
15625;DHT22;7912;51.376;6.126;2023-05-07T03:32:35;17.80;99.90
15625;DHT22;7912;51.376;6.126;2023-05-07T03:35:03;17.80;99.90
15625;DHT22;7912;51.376;6.126;2023-05-07T03:37:30;17.80;99.90
15625;DHT22;7912;51.376;6.126;2023-05-07T03:39:58;17.80;99.90
15625;DHT22;7912;51.376;6.126;2023-05-07T03:42:25;17.90;99.90
15625;DHT22;7912;51.376;6.126;2023-05-07T03:44:52;17.80;99.90
15625;DHT22;7912;51.376;6.126;2023-05-07T03:47:38;17.80;99.90
15625;DHT22;7912;51.376;6.126;2023-05-07T03:50:12;17.80;99.90
15625;DHT22;7912;51.376;6.126;2023-05-07T03:52:39;17.80;99.90
15625;DHT22;7912;51.376;6.126;2023-05-07T03:55:07;17.90;99.90
15625;DHT22;7912;51.376;6.126;2023-05-07T03:57:35;17.80;99.90
15625;DHT22;7912;51.376;6.126;2023-05-07T04:00:02;17.80;99.90
15625;DHT22;7912;51.376;6.126;2023-05-07T04:02:31;17.80;99.90
15625;DHT22;7912;51.376;6.126;2023-05-07T04:05:00;17.80;99.90
15625;DHT22;7912;51.376;6.126;2023-05-07T04:07:27;17.80;99.90
15625;DHT22;7912;51.376;6.126;2023-05-07T04:09:54;17.80;99.90
15625;DHT22;7912;51.376;6.126;2023-05-07T04:12:21;17.80;99.90
15625;DHT22;7912;51.376;6.126;2023-05-07T04:14:49;17.80;99.90
15625;DHT22;7912;51.376;6.126;2023-05-07T04:17:17;17.80;99.90
15625;DHT22;7912;51.376;6.126;2023-05-07T04:19:44;17.80;99.90
15625;DHT22;7912;51.376;6.126;2023-05-07T04:22:12;17.80;99.90
15625;DHT22;7912;51.376;6.126;2023-05-07T04:24:39;17.80;99.90
15625;DHT22;7912;51.376;6.126;2023-05-07T04:27:06;17.70;99.90
15625;DHT22;7912;51.376;6.126;2023-05-07T04:29:34;17.70;99.90
15625;DHT22;7912;51.376;6.126;2023-05-07T04:32:01;17.70;99.90
15625;DHT22;7912;51.376;6.126;2023-05-07T04:34:29;17.70;99.90
15625;DHT22;7912;51.376;6.126;2023-05-07T04:36:58;17.80;99.90
15625;DHT22;7912;51.376;6.126;2023-05-07T04:39:26;17.80;99.90
15625;DHT22;7912;51.376;6.126;2023-05-07T04:41:53;17.80;99.90
15625;DHT22;7912;51.376;6.126;2023-05-07T04:44:21;17.80;99.90
15625;DHT22;7912;51.376;6.126;2023-05-07T04:46:51;17.80;99.90
15625;DHT22;7912;51.376;6.126;2023-05-07T04:49:18;17.80;99.90
15625;DHT22;7912;51.376;6.126;2023-05-07T04:51:45;17.90;99.90
15625;DHT22;7912;51.376;6.126;2023-05-07T04:54:13;17.90;99.90
15625;DHT22;7912;51.376;6.126;2023-05-07T04:56:40;17.90;99.90
15625;DHT22;7912;51.376;6.126;2023-05-07T04:59:07;17.90;99.90
15625;DHT22;7912;51.376;6.126;2023-05-07T05:01:34;18.00;99.90
15625;DHT22;7912;51.376;6.126;2023-05-07T05:04:02;18.00;99.90
15625;DHT22;7912;51.376;6.126;2023-05-07T05:06:29;18.00;99.90
15625;DHT22;7912;51.376;6.126;2023-05-07T05:08:57;18.10;99.90
15625;DHT22;7912;51.376;6.126;2023-05-07T05:11:24;18.10;99.90
15625;DHT22;7912;51.376;6.126;2023-05-07T05:13:51;18.10;99.90
15625;DHT22;7912;51.376;6.126;2023-05-07T05:16:19;18.20;99.90
15625;DHT22;7912;51.376;6.126;2023-05-07T05:18:46;18.20;99.90
15625;DHT22;7912;51.376;6.126;2023-05-07T05:21:15;18.30;99.90
15625;DHT22;7912;51.376;6.126;2023-05-07T05:23:43;18.30;99.90
15625;DHT22;7912;51.376;6.126;2023-05-07T05:26:10;18.40;99.90
15625;DHT22;7912;51.376;6.126;2023-05-07T05:28:38;18.40;99.90
15625;DHT22;7912;51.376;6.126;2023-05-07T05:31:06;18.40;99.90
15625;DHT22;7912;51.376;6.126;2023-05-07T05:33:34;18.50;99.90
15625;DHT22;7912;51.376;6.126;2023-05-07T05:36:01;18.60;99.90
15625;DHT22;7912;51.376;6.126;2023-05-07T05:38:31;18.60;99.90
15625;DHT22;7912;51.376;6.126;2023-05-07T05:40:58;18.70;99.90
15625;DHT22;7912;51.376;6.126;2023-05-07T05:43:25;18.70;99.90
15625;DHT22;7912;51.376;6.126;2023-05-07T05:46:03;18.80;99.90
15625;DHT22;7912;51.376;6.126;2023-05-07T05:48:52;18.80;99.90
15625;DHT22;7912;51.376;6.126;2023-05-07T05:51:21;18.90;99.90
15625;DHT22;7912;51.376;6.126;2023-05-07T05:58:00;19.10;99.90
15625;DHT22;7912;51.376;6.126;2023-05-07T06:00:28;19.20;99.90
15625;DHT22;7912;51.376;6.126;2023-05-07T06:02:58;19.20;99.90
15625;DHT22;7912;51.376;6.126;2023-05-07T06:05:26;19.30;99.90
15625;DHT22;7912;51.376;6.126;2023-05-07T06:07:53;19.30;99.90
15625;DHT22;7912;51.376;6.126;2023-05-07T06:10:20;19.40;99.90
15625;DHT22;7912;51.376;6.126;2023-05-07T06:12:48;19.50;99.90
15625;DHT22;7912;51.376;6.126;2023-05-07T06:15:15;19.50;99.90
15625;DHT22;7912;51.376;6.126;2023-05-07T06:17:42;19.60;99.90
15625;DHT22;7912;51.376;6.126;2023-05-07T06:20:10;19.70;99.90
15625;DHT22;7912;51.376;6.126;2023-05-07T06:22:38;19.80;99.90
15625;DHT22;7912;51.376;6.126;2023-05-07T06:25:05;19.80;99.90
15625;DHT22;7912;51.376;6.126;2023-05-07T06:27:33;19.90;99.90
15625;DHT22;7912;51.376;6.126;2023-05-07T06:30:00;19.90;99.90
15625;DHT22;7912;51.376;6.126;2023-05-07T06:32:27;19.90;99.90
15625;DHT22;7912;51.376;6.126;2023-05-07T06:34:55;20.00;99.90
15625;DHT22;7912;51.376;6.126;2023-05-07T06:37:25;20.10;99.90
15625;DHT22;7912;51.376;6.126;2023-05-07T06:39:52;20.20;99.90
15625;DHT22;7912;51.376;6.126;2023-05-07T06:46:02;20.30;99.90
15625;DHT22;7912;51.376;6.126;2023-05-07T06:48:29;20.50;99.90
15625;DHT22;7912;51.376;6.126;2023-05-07T06:50:56;20.70;99.90
15625;DHT22;7912;51.376;6.126;2023-05-07T06:53:24;20.80;99.90
15625;DHT22;7912;51.376;6.126;2023-05-07T06:55:52;21.00;99.90
15625;DHT22;7912;51.376;6.126;2023-05-07T06:58:19;21.10;99.90
15625;DHT22;7912;51.376;6.126;2023-05-07T07:00:47;21.20;99.90
15625;DHT22;7912;51.376;6.126;2023-05-07T07:07:24;21.50;99.90
15625;DHT22;7912;51.376;6.126;2023-05-07T07:09:51;21.60;99.90
15625;DHT22;7912;51.376;6.126;2023-05-07T07:16:28;21.90;99.90
15625;DHT22;7912;51.376;6.126;2023-05-07T07:18:55;22.20;99.90
15625;DHT22;7912;51.376;6.126;2023-05-07T07:21:23;22.30;99.90
15625;DHT22;7912;51.376;6.126;2023-05-07T07:23:50;22.50;99.90
15625;DHT22;7912;51.376;6.126;2023-05-07T07:26:17;22.60;99.90
15625;DHT22;7912;51.376;6.126;2023-05-07T07:28:45;22.70;99.90
15625;DHT22;7912;51.376;6.126;2023-05-07T07:31:13;22.80;99.90
15625;DHT22;7912;51.376;6.126;2023-05-07T07:33:40;22.90;99.90
15625;DHT22;7912;51.376;6.126;2023-05-07T07:36:08;23.00;99.90
15625;DHT22;7912;51.376;6.126;2023-05-07T07:38:36;23.20;99.90
15625;DHT22;7912;51.376;6.126;2023-05-07T07:41:03;23.30;99.90
15625;DHT22;7912;51.376;6.126;2023-05-07T07:43:30;23.40;99.90
15625;DHT22;7912;51.376;6.126;2023-05-07T07:45:58;23.40;99.90
15625;DHT22;7912;51.376;6.126;2023-05-07T07:48:25;23.50;99.90
15625;DHT22;7912;51.376;6.126;2023-05-07T07:50:52;23.60;99.90
15625;DHT22;7912;51.376;6.126;2023-05-07T07:53:20;23.70;99.90
15625;DHT22;7912;51.376;6.126;2023-05-07T07:55:47;23.80;99.90
15625;DHT22;7912;51.376;6.126;2023-05-07T07:58:14;23.90;99.90
15625;DHT22;7912;51.376;6.126;2023-05-07T08:00:44;23.90;99.90
15625;DHT22;7912;51.376;6.126;2023-05-07T08:03:11;24.00;99.90
15625;DHT22;7912;51.376;6.126;2023-05-07T08:05:39;24.10;99.90
15625;DHT22;7912;51.376;6.126;2023-05-07T08:08:07;24.20;99.90
15625;DHT22;7912;51.376;6.126;2023-05-07T08:10:34;24.30;99.90
15625;DHT22;7912;51.376;6.126;2023-05-07T08:13:05;24.40;99.90
15625;DHT22;7912;51.376;6.126;2023-05-07T08:15:32;24.50;99.90
15625;DHT22;7912;51.376;6.126;2023-05-07T08:18:01;24.60;99.90
15625;DHT22;7912;51.376;6.126;2023-05-07T08:20:29;24.80;99.90
15625;DHT22;7912;51.376;6.126;2023-05-07T08:22:56;24.90;99.90
15625;DHT22;7912;51.376;6.126;2023-05-07T08:25:24;25.10;99.90
15625;DHT22;7912;51.376;6.126;2023-05-07T08:36:10;25.60;99.90
15625;DHT22;7912;51.376;6.126;2023-05-07T08:38:38;25.90;99.90
15625;DHT22;7912;51.376;6.126;2023-05-07T08:41:10;26.00;99.90
15625;DHT22;7912;51.376;6.126;2023-05-07T08:43:38;26.10;99.90
15625;DHT22;7912;51.376;6.126;2023-05-07T08:46:09;26.20;99.90
15625;DHT22;7912;51.376;6.126;2023-05-07T08:48:38;26.50;99.90
15625;DHT22;7912;51.376;6.126;2023-05-07T08:51:06;26.70;99.90
15625;DHT22;7912;51.376;6.126;2023-05-07T08:53:35;26.90;99.90
15625;DHT22;7912;51.376;6.126;2023-05-07T08:56:03;27.10;99.90
15625;DHT22;7912;51.376;6.126;2023-05-07T08:58:32;27.30;99.90
15625;DHT22;7912;51.376;6.126;2023-05-07T09:01:03;27.50;99.90
15625;DHT22;7912;51.376;6.126;2023-05-07T09:03:37;27.70;98.60
15625;DHT22;7912;51.376;6.126;2023-05-07T09:06:06;27.90;98.80
15625;DHT22;7912;51.376;6.126;2023-05-07T09:08:34;28.00;98.20
15625;DHT22;7912;51.376;6.126;2023-05-07T09:11:02;28.10;97.10
15625;DHT22;7912;51.376;6.126;2023-05-07T09:13:30;28.20;97.00
15625;DHT22;7912;51.376;6.126;2023-05-07T09:15:57;28.30;96.20
15625;DHT22;7912;51.376;6.126;2023-05-07T09:18:25;28.40;96.40
15625;DHT22;7912;51.376;6.126;2023-05-07T09:20:52;28.50;96.60
15625;DHT22;7912;51.376;6.126;2023-05-07T09:23:20;28.70;95.70
15625;DHT22;7912;51.376;6.126;2023-05-07T09:25:48;29.00;94.80
15625;DHT22;7912;51.376;6.126;2023-05-07T09:28:15;29.10;93.90
15625;DHT22;7912;51.376;6.126;2023-05-07T09:30:42;29.10;93.50
15625;DHT22;7912;51.376;6.126;2023-05-07T09:33:09;29.10;93.10
15625;DHT22;7912;51.376;6.126;2023-05-07T09:35:40;29.00;93.00
15625;DHT22;7912;51.376;6.126;2023-05-07T09:38:07;29.00;93.20
15625;DHT22;7912;51.376;6.126;2023-05-07T09:40:35;29.00;93.00
15625;DHT22;7912;51.376;6.126;2023-05-07T09:43:13;28.90;93.10
15625;DHT22;7912;51.376;6.126;2023-05-07T09:48:53;28.90;92.50
15625;DHT22;7912;51.376;6.126;2023-05-07T09:51:51;28.90;93.20
15625;DHT22;7912;51.376;6.126;2023-05-07T09:54:19;28.80;92.90
15625;DHT22;7912;51.376;6.126;2023-05-07T09:56:48;28.90;93.10
15625;DHT22;7912;51.376;6.126;2023-05-07T09:59:38;29.00;93.00
15625;DHT22;7912;51.376;6.126;2023-05-07T10:02:10;29.00;92.20
15625;DHT22;7912;51.376;6.126;2023-05-07T10:04:38;29.30;92.90
15625;DHT22;7912;51.376;6.126;2023-05-07T10:07:09;29.40;92.20
15625;DHT22;7912;51.376;6.126;2023-05-07T10:13:19;29.80;89.50
15625;DHT22;7912;51.376;6.126;2023-05-07T10:19:11;30.10;86.30
15625;DHT22;7912;51.376;6.126;2023-05-07T10:21:44;30.20;85.70
15625;DHT22;7912;51.376;6.126;2023-05-07T10:27:46;30.10;84.80
15625;DHT22;7912;51.376;6.126;2023-05-07T10:33:11;30.00;87.70
15625;DHT22;7912;51.376;6.126;2023-05-07T10:35:45;29.90;86.50
15625;DHT22;7912;51.376;6.126;2023-05-07T10:38:14;29.90;87.50
15625;DHT22;7912;51.376;6.126;2023-05-07T10:40:42;29.90;88.90
15625;DHT22;7912;51.376;6.126;2023-05-07T10:43:13;29.90;89.40
15625;DHT22;7912;51.376;6.126;2023-05-07T10:45:44;30.00;87.40
15625;DHT22;7912;51.376;6.126;2023-05-07T10:51:34;30.20;86.40
15625;DHT22;7912;51.376;6.126;2023-05-07T10:56:39;30.20;82.90
15625;DHT22;7912;51.376;6.126;2023-05-07T11:01:56;30.40;81.40
15625;DHT22;7912;51.376;6.126;2023-05-07T11:04:25;30.40;81.60
15625;DHT22;7912;51.376;6.126;2023-05-07T11:09:58;30.60;77.80
15625;DHT22;7912;51.376;6.126;2023-05-07T11:15:10;30.90;76.80
15625;DHT22;7912;51.376;6.126;2023-05-07T11:17:58;31.00;78.00
15625;DHT22;7912;51.376;6.126;2023-05-07T11:24:10;31.40;78.50
15625;DHT22;7912;51.376;6.126;2023-05-07T11:26:48;31.70;79.10
15625;DHT22;7912;51.376;6.126;2023-05-07T11:29:20;31.90;77.30
15625;DHT22;7912;51.376;6.126;2023-05-07T11:31:53;32.00;76.50
15625;DHT22;7912;51.376;6.126;2023-05-07T11:34:26;32.00;74.50
15625;DHT22;7912;51.376;6.126;2023-05-07T11:41:04;31.90;72.10
15625;DHT22;7912;51.376;6.126;2023-05-07T11:43:34;31.80;74.20
15625;DHT22;7912;51.376;6.126;2023-05-07T11:46:10;31.60;73.00
15625;DHT22;7912;51.376;6.126;2023-05-07T11:48:38;31.40;72.90
15625;DHT22;7912;51.376;6.126;2023-05-07T11:55:18;31.10;73.80
15625;DHT22;7912;51.376;6.126;2023-05-07T11:57:47;31.00;73.90
15625;DHT22;7912;51.376;6.126;2023-05-07T12:00:16;30.90;75.30
15625;DHT22;7912;51.376;6.126;2023-05-07T12:02:45;30.90;74.40
15625;DHT22;7912;51.376;6.126;2023-05-07T12:05:17;30.80;74.70
15625;DHT22;7912;51.376;6.126;2023-05-07T12:07:44;30.70;75.80
15625;DHT22;7912;51.376;6.126;2023-05-07T12:10:12;30.70;76.30
15625;DHT22;7912;51.376;6.126;2023-05-07T12:12:46;30.70;75.20
15625;DHT22;7912;51.376;6.126;2023-05-07T12:15:17;30.70;74.30
15625;DHT22;7912;51.376;6.126;2023-05-07T12:17:49;30.70;73.20
15625;DHT22;7912;51.376;6.126;2023-05-07T12:24:17;30.80;76.40
15625;DHT22;7912;51.376;6.126;2023-05-07T12:26:48;31.00;77.10
15625;DHT22;7912;51.376;6.126;2023-05-07T12:29:16;31.30;76.10
15625;DHT22;7912;51.376;6.126;2023-05-07T12:31:43;31.40;74.00
15625;DHT22;7912;51.376;6.126;2023-05-07T12:34:11;31.60;73.80
15625;DHT22;7912;51.376;6.126;2023-05-07T12:36:40;31.70;73.70
15625;DHT22;7912;51.376;6.126;2023-05-07T12:39:08;31.80;72.90
15625;DHT22;7912;51.376;6.126;2023-05-07T12:41:55;31.90;70.80
15625;DHT22;7912;51.376;6.126;2023-05-07T12:44:29;31.90;69.40
15625;DHT22;7912;51.376;6.126;2023-05-07T12:50:50;31.70;68.30
15625;DHT22;7912;51.376;6.126;2023-05-07T12:53:21;31.60;70.10
15625;DHT22;7912;51.376;6.126;2023-05-07T12:55:56;31.40;69.50
15625;DHT22;7912;51.376;6.126;2023-05-07T13:01:18;31.10;70.20
15625;DHT22;7912;51.376;6.126;2023-05-07T13:03:48;31.00;70.10
15625;DHT22;7912;51.376;6.126;2023-05-07T13:06:17;30.80;70.30
15625;DHT22;7912;51.376;6.126;2023-05-07T13:08:44;30.60;70.50
15625;DHT22;7912;51.376;6.126;2023-05-07T13:11:13;30.50;70.80
15625;DHT22;7912;51.376;6.126;2023-05-07T13:13:41;30.30;70.60
15625;DHT22;7912;51.376;6.126;2023-05-07T13:16:10;30.10;71.20
15625;DHT22;7912;51.376;6.126;2023-05-07T13:18:39;29.90;71.40
15625;DHT22;7912;51.376;6.126;2023-05-07T13:21:07;29.70;72.00
15625;DHT22;7912;51.376;6.126;2023-05-07T13:23:37;29.60;72.10
15625;DHT22;7912;51.376;6.126;2023-05-07T13:26:10;29.40;72.30
15625;DHT22;7912;51.376;6.126;2023-05-07T13:28:55;29.30;72.80
15625;DHT22;7912;51.376;6.126;2023-05-07T13:31:22;29.10;72.40
15625;DHT22;7912;51.376;6.126;2023-05-07T13:33:50;29.00;73.50
15625;DHT22;7912;51.376;6.126;2023-05-07T13:39:24;28.70;74.70
15625;DHT22;7912;51.376;6.126;2023-05-07T13:41:52;28.60;75.10
15625;DHT22;7912;51.376;6.126;2023-05-07T13:44:19;28.50;75.30
15625;DHT22;7912;51.376;6.126;2023-05-07T13:46:47;28.40;75.50
15625;DHT22;7912;51.376;6.126;2023-05-07T13:49:15;28.40;76.00
15625;DHT22;7912;51.376;6.126;2023-05-07T13:51:42;28.30;76.20
15625;DHT22;7912;51.376;6.126;2023-05-07T13:54:09;28.30;77.50
15625;DHT22;7912;51.376;6.126;2023-05-07T13:56:37;28.20;76.90
15625;DHT22;7912;51.376;6.126;2023-05-07T13:59:04;28.20;78.20
15625;DHT22;7912;51.376;6.126;2023-05-07T14:01:31;28.20;78.60
15625;DHT22;7912;51.376;6.126;2023-05-07T14:03:59;28.20;80.10
15625;DHT22;7912;51.376;6.126;2023-05-07T14:10:37;27.90;82.50
15625;DHT22;7912;51.376;6.126;2023-05-07T14:13:04;27.50;82.40
15625;DHT22;7912;51.376;6.126;2023-05-07T14:15:32;27.20;83.40
15625;DHT22;7912;51.376;6.126;2023-05-07T14:18:00;26.90;84.40
15625;DHT22;7912;51.376;6.126;2023-05-07T14:20:27;26.60;86.50
15625;DHT22;7912;51.376;6.126;2023-05-07T14:22:55;26.30;87.80
15625;DHT22;7912;51.376;6.126;2023-05-07T14:29:07;25.70;90.70
15625;DHT22;7912;51.376;6.126;2023-05-07T14:31:34;25.40;91.00
15625;DHT22;7912;51.376;6.126;2023-05-07T14:34:01;25.20;91.80
15625;DHT22;7912;51.376;6.126;2023-05-07T14:36:29;25.10;92.80
15625;DHT22;7912;51.376;6.126;2023-05-07T14:38:58;25.00;93.40
15625;DHT22;7912;51.376;6.126;2023-05-07T14:41:26;24.90;94.10
15625;DHT22;7912;51.376;6.126;2023-05-07T14:43:53;24.90;94.90
15625;DHT22;7912;51.376;6.126;2023-05-07T14:46:21;24.90;95.40
15625;DHT22;7912;51.376;6.126;2023-05-07T14:48:48;24.90;96.00
15625;DHT22;7912;51.376;6.126;2023-05-07T14:51:15;24.90;95.90
15625;DHT22;7912;51.376;6.126;2023-05-07T14:53:44;24.90;95.60
15625;DHT22;7912;51.376;6.126;2023-05-07T14:56:11;24.90;95.50
15625;DHT22;7912;51.376;6.126;2023-05-07T15:02:49;24.80;95.30
15625;DHT22;7912;51.376;6.126;2023-05-07T15:05:16;24.80;95.40
15625;DHT22;7912;51.376;6.126;2023-05-07T15:07:45;24.80;95.10
15625;DHT22;7912;51.376;6.126;2023-05-07T15:10:13;24.90;94.70
15625;DHT22;7912;51.376;6.126;2023-05-07T15:12:40;25.00;94.10
15625;DHT22;7912;51.376;6.126;2023-05-07T15:15:08;25.10;93.80
15625;DHT22;7912;51.376;6.126;2023-05-07T15:17:36;25.20;93.50
15625;DHT22;7912;51.376;6.126;2023-05-07T15:24:14;25.60;93.30
15625;DHT22;7912;51.376;6.126;2023-05-07T15:26:41;25.90;93.30
15625;DHT22;7912;51.376;6.126;2023-05-07T15:29:08;26.20;93.20
15625;DHT22;7912;51.376;6.126;2023-05-07T15:31:37;26.40;91.90
15625;DHT22;7912;51.376;6.126;2023-05-07T15:34:06;26.70;90.80
15625;DHT22;7912;51.376;6.126;2023-05-07T15:36:33;26.80;90.30
15625;DHT22;7912;51.376;6.126;2023-05-07T15:39:01;26.90;90.30
15625;DHT22;7912;51.376;6.126;2023-05-07T15:45:41;27.10;89.60
15625;DHT22;7912;51.376;6.126;2023-05-07T15:48:10;27.20;89.40
15625;DHT22;7912;51.376;6.126;2023-05-07T15:50:37;27.30;88.40
15625;DHT22;7912;51.376;6.126;2023-05-07T15:53:04;27.40;88.30
15625;DHT22;7912;51.376;6.126;2023-05-07T15:55:32;27.50;88.10
15625;DHT22;7912;51.376;6.126;2023-05-07T16:05:52;27.90;87.00
15625;DHT22;7912;51.376;6.126;2023-05-07T16:08:20;27.90;86.80
15625;DHT22;7912;51.376;6.126;2023-05-07T16:10:47;27.80;86.70
15625;DHT22;7912;51.376;6.126;2023-05-07T16:13:15;27.80;87.00
15625;DHT22;7912;51.376;6.126;2023-05-07T16:15:46;27.80;87.40
15625;DHT22;7912;51.376;6.126;2023-05-07T16:18:16;27.70;87.50
15625;DHT22;7912;51.376;6.126;2023-05-07T16:24:54;27.60;87.80
15625;DHT22;7912;51.376;6.126;2023-05-07T16:27:21;27.60;87.90
15625;DHT22;7912;51.376;6.126;2023-05-07T16:29:48;27.40;87.90
15625;DHT22;7912;51.376;6.126;2023-05-07T16:32:16;27.30;88.30
15625;DHT22;7912;51.376;6.126;2023-05-07T16:34:43;27.20;88.80
15625;DHT22;7912;51.376;6.126;2023-05-07T16:37:10;27.00;88.40
15625;DHT22;7912;51.376;6.126;2023-05-07T16:43:47;26.70;89.00
15625;DHT22;7912;51.376;6.126;2023-05-07T16:46:15;26.40;89.70
15625;DHT22;7912;51.376;6.126;2023-05-07T16:48:42;26.30;90.30
15625;DHT22;7912;51.376;6.126;2023-05-07T16:51:09;26.10;90.60
15625;DHT22;7912;51.376;6.126;2023-05-07T16:56:46;25.60;91.40
15625;DHT22;7912;51.376;6.126;2023-05-07T16:59:13;25.40;91.60
15625;DHT22;7912;51.376;6.126;2023-05-07T17:01:41;25.20;92.00
15625;DHT22;7912;51.376;6.126;2023-05-07T17:04:08;25.00;92.40
15625;DHT22;7912;51.376;6.126;2023-05-07T17:06:36;24.80;92.80
15625;DHT22;7912;51.376;6.126;2023-05-07T17:09:03;24.60;93.20
15625;DHT22;7912;51.376;6.126;2023-05-07T17:11:30;24.40;93.70
15625;DHT22;7912;51.376;6.126;2023-05-07T17:13:59;24.30;94.20
15625;DHT22;7912;51.376;6.126;2023-05-07T17:16:31;24.10;94.40
15625;DHT22;7912;51.376;6.126;2023-05-07T17:18:58;24.00;95.00
15625;DHT22;7912;51.376;6.126;2023-05-07T17:21:26;23.80;95.40
15625;DHT22;7912;51.376;6.126;2023-05-07T17:23:53;23.70;95.80
15625;DHT22;7912;51.376;6.126;2023-05-07T17:26:20;23.50;96.20
15625;DHT22;7912;51.376;6.126;2023-05-07T17:28:48;23.40;96.40
15625;DHT22;7912;51.376;6.126;2023-05-07T17:31:15;23.30;96.80
15625;DHT22;7912;51.376;6.126;2023-05-07T17:33:42;23.10;97.30
15625;DHT22;7912;51.376;6.126;2023-05-07T17:36:10;23.00;97.70
15625;DHT22;7912;51.376;6.126;2023-05-07T17:38:37;23.00;98.20
15625;DHT22;7912;51.376;6.126;2023-05-07T17:41:04;22.90;98.70
15625;DHT22;7912;51.376;6.126;2023-05-07T17:43:32;22.80;99.00
15625;DHT22;7912;51.376;6.126;2023-05-07T17:45:59;22.70;99.10
15625;DHT22;7912;51.376;6.126;2023-05-07T17:48:26;22.70;98.90
15625;DHT22;7912;51.376;6.126;2023-05-07T17:51:00;22.70;98.90
15625;DHT22;7912;51.376;6.126;2023-05-07T17:53:29;22.70;98.90
15625;DHT22;7912;51.376;6.126;2023-05-07T17:55:56;22.60;98.50
15625;DHT22;7912;51.376;6.126;2023-05-07T17:58:24;22.60;98.40
15625;DHT22;7912;51.376;6.126;2023-05-07T18:00:53;22.60;98.70
15625;DHT22;7912;51.376;6.126;2023-05-07T18:03:21;22.60;98.20
15625;DHT22;7912;51.376;6.126;2023-05-07T18:05:50;22.50;98.10
15625;DHT22;7912;51.376;6.126;2023-05-07T18:08:17;22.50;98.10
15625;DHT22;7912;51.376;6.126;2023-05-07T18:10:45;22.40;98.40
15625;DHT22;7912;51.376;6.126;2023-05-07T18:13:12;22.40;98.70
15625;DHT22;7912;51.376;6.126;2023-05-07T18:15:40;22.40;99.00